createdAt,value
2023-08-15T00:00:31.840Z,2.50
2023-08-15T00:01:31.931Z,2.40
2023-08-15T00:02:31.890Z,2.20
2023-08-15T00:03:31.923Z,2.10
2023-08-15T00:04:31.774Z,2.30
2023-08-15T00:05:31.750Z,2.50
2023-08-15T00:06:31.760Z,2.40
2023-08-15T00:07:31.729Z,2.30
2023-08-15T00:08:31.766Z,2.30
2023-08-15T00:09:31.702Z,2.40
2023-08-15T00:10:31.724Z,2.60
2023-08-15T00:11:31.689Z,2.40
2023-08-15T00:12:31.941Z,2.20
2023-08-15T00:13:31.696Z,2.20
2023-08-15T00:14:32.976Z,2.40
2023-08-15T00:15:31.650Z,2.20
2023-08-15T00:16:31.666Z,2.30
2023-08-15T00:17:31.641Z,2.30
2023-08-15T00:18:31.627Z,2.60
2023-08-15T00:19:31.599Z,2.00
2023-08-15T00:20:31.618Z,2.30
2023-08-15T00:21:31.582Z,2.30
2023-08-15T00:22:31.584Z,2.10
2023-08-15T00:23:31.551Z,2.10
2023-08-15T00:24:31.566Z,2.30
2023-08-15T00:25:31.622Z,2.40
2023-08-15T00:26:31.551Z,2.40
2023-08-15T00:27:31.509Z,2.60
2023-08-15T00:28:31.514Z,2.20
2023-08-15T00:29:31.513Z,2.60
2023-08-15T00:30:31.531Z,2.30
2023-08-15T00:31:31.464Z,2.20
2023-08-15T00:32:31.511Z,2.20
2023-08-15T00:33:31.448Z,2.50
2023-08-15T00:34:31.453Z,2.40
2023-08-15T00:35:31.423Z,2.30
2023-08-15T00:36:31.498Z,2.10
2023-08-15T00:37:31.629Z,2.60
2023-08-15T00:38:31.429Z,2.20
2023-08-15T00:39:31.384Z,2.70
2023-08-15T00:40:31.411Z,2.30
2023-08-15T00:41:31.417Z,2.70
2023-08-15T00:42:31.405Z,2.80
2023-08-15T00:43:31.338Z,2.60
2023-08-15T00:44:32.459Z,2.20
2023-08-15T00:45:31.353Z,2.50
2023-08-15T00:46:31.341Z,2.30
2023-08-15T00:47:31.332Z,2.00
2023-08-15T00:48:31.297Z,2.40
2023-08-15T00:49:31.270Z,2.70
2023-08-15T00:50:31.265Z,2.40
2023-08-15T00:51:31.735Z,2.40
2023-08-15T00:52:31.252Z,2.20
2023-08-15T00:53:31.227Z,2.30
2023-08-15T00:54:31.241Z,2.40
2023-08-15T00:55:31.203Z,2.50
2023-08-15T00:56:31.222Z,2.40
2023-08-15T00:57:31.222Z,2.30
2023-08-15T00:58:31.187Z,2.70
2023-08-15T00:59:31.157Z,2.20
2023-08-15T01:00:31.160Z,2.20
2023-08-15T01:01:31.171Z,2.50
2023-08-15T01:02:31.232Z,2.50
2023-08-15T01:03:31.278Z,3.00
2023-08-15T01:04:31.265Z,2.60
2023-08-15T01:05:31.108Z,2.50
2023-08-15T01:06:31.091Z,2.30
2023-08-15T01:07:31.064Z,4.10
2023-08-15T01:08:31.081Z,2.50
2023-08-15T01:09:31.061Z,2.60
2023-08-15T01:10:31.076Z,2.40
2023-08-15T01:11:31.022Z,2.10
2023-08-15T01:12:31.024Z,2.40
2023-08-15T01:13:31.002Z,2.50
2023-08-15T01:14:31.054Z,2.30
2023-08-15T01:15:30.974Z,2.80
2023-08-15T01:16:31.009Z,2.70
2023-08-15T01:17:31.060Z,2.50
2023-08-15T01:18:30.987Z,2.40
2023-08-15T01:19:31.683Z,2.30
2023-08-15T01:20:31.025Z,2.40
2023-08-15T01:21:30.909Z,2.20
2023-08-15T01:22:30.934Z,2.40
2023-08-15T01:23:30.884Z,2.30
2023-08-15T01:24:30.884Z,2.50
2023-08-15T01:25:30.858Z,2.60
2023-08-15T01:26:30.881Z,2.50
2023-08-15T01:27:30.850Z,2.50
2023-08-15T01:28:30.873Z,2.40
2023-08-15T01:29:30.832Z,2.20
2023-08-15T01:30:30.820Z,2.40
2023-08-15T01:31:30.873Z,2.40
2023-08-15T01:32:30.851Z,2.60
2023-08-15T01:33:31.298Z,2.20
2023-08-15T01:34:30.827Z,2.40
2023-08-15T01:35:30.752Z,2.30
2023-08-15T01:36:30.753Z,2.00
2023-08-15T01:37:30.740Z,2.30
2023-08-15T01:38:30.753Z,2.30
2023-08-15T01:39:30.711Z,2.10
2023-08-15T01:40:30.779Z,2.40
2023-08-15T01:41:30.677Z,2.60
2023-08-15T01:42:30.679Z,2.30
2023-08-15T01:43:30.662Z,2.60
2023-08-15T01:44:30.658Z,2.50
2023-08-15T01:45:30.682Z,2.20
2023-08-15T01:46:31.306Z,2.40
2023-08-15T01:47:30.649Z,2.10
2023-08-15T01:48:30.683Z,2.20
2023-08-15T01:49:30.581Z,2.90
2023-08-15T01:50:30.592Z,2.70
2023-08-15T01:51:30.559Z,2.60
2023-08-15T01:52:30.612Z,2.60
2023-08-15T01:53:30.547Z,2.30
2023-08-15T01:54:30.591Z,2.40
2023-08-15T01:55:30.530Z,2.60
2023-08-15T01:56:30.538Z,2.40
2023-08-15T01:57:30.541Z,2.60
2023-08-15T01:58:30.485Z,2.40
2023-08-15T01:59:30.508Z,2.50
2023-08-15T02:00:30.501Z,2.40
2023-08-15T02:01:30.506Z,2.30
2023-08-15T02:02:30.501Z,2.60
2023-08-15T02:03:30.462Z,2.40
2023-08-15T02:04:30.419Z,2.40
2023-08-15T02:05:30.551Z,2.50
2023-08-15T02:06:30.445Z,2.30
2023-08-15T02:07:30.404Z,2.40
2023-08-15T02:08:30.368Z,2.50
2023-08-15T02:09:30.378Z,2.50
2023-08-15T02:10:30.389Z,2.60
2023-08-15T02:11:30.360Z,2.10
2023-08-15T02:12:30.362Z,2.50
2023-08-15T02:13:30.338Z,2.70
2023-08-15T02:14:30.306Z,2.30
2023-08-15T02:15:30.370Z,2.50
2023-08-15T02:16:30.305Z,2.50
2023-08-15T02:17:30.334Z,2.50
2023-08-15T02:18:30.322Z,2.20
2023-08-15T02:19:30.260Z,2.30
2023-08-15T02:20:30.237Z,2.60
2023-08-15T02:21:30.295Z,2.40
2023-08-15T02:22:30.233Z,2.30
2023-08-15T02:23:30.215Z,2.10
2023-08-15T02:24:30.465Z,2.70
2023-08-15T02:25:30.201Z,2.60
2023-08-15T02:26:30.173Z,2.60
2023-08-15T02:27:30.236Z,2.50
2023-08-15T02:28:30.145Z,2.40
2023-08-15T02:29:31.653Z,2.40
2023-08-15T02:30:30.124Z,2.30
2023-08-15T02:31:30.169Z,2.40
2023-08-15T02:32:30.136Z,2.40
2023-08-15T02:33:31.083Z,2.30
2023-08-15T02:34:30.099Z,2.30
2023-08-15T02:35:30.082Z,2.40
2023-08-15T02:36:30.050Z,2.20
2023-08-15T02:37:30.060Z,2.70
2023-08-15T02:38:30.325Z,2.40
2023-08-15T02:39:30.035Z,2.60
2023-08-15T02:40:30.006Z,2.60
2023-08-15T02:41:30.504Z,2.30
2023-08-15T02:42:29.998Z,2.40
2023-08-15T02:43:30.330Z,2.50
2023-08-15T02:44:30.008Z,2.20
2023-08-15T02:45:29.965Z,2.50
2023-08-15T02:46:30.019Z,2.60
2023-08-15T02:47:29.954Z,2.40
2023-08-15T02:48:29.921Z,2.50
2023-08-15T02:49:29.922Z,2.30
2023-08-15T02:50:29.923Z,2.20
2023-08-15T02:51:30.081Z,2.50
2023-08-15T02:52:29.870Z,2.60
2023-08-15T02:53:29.882Z,2.70
2023-08-15T02:54:29.858Z,2.40
2023-08-15T02:55:29.862Z,2.30
2023-08-15T02:56:29.863Z,2.30
2023-08-15T02:57:30.123Z,2.50
2023-08-15T02:58:29.824Z,2.20
2023-08-15T02:59:29.845Z,2.40
2023-08-15T03:00:29.786Z,2.50
2023-08-15T03:01:29.803Z,2.20
2023-08-15T03:02:30.391Z,2.10
2023-08-15T03:03:30.061Z,2.40
2023-08-15T03:04:29.754Z,2.30
2023-08-15T03:05:29.772Z,2.20
2023-08-15T03:06:29.883Z,2.50
2023-08-15T03:07:29.719Z,2.50
2023-08-15T03:08:29.703Z,2.50
2023-08-15T03:09:29.725Z,2.30
2023-08-15T03:10:29.685Z,2.70
2023-08-15T03:11:29.688Z,2.30
2023-08-15T03:12:29.686Z,2.30
2023-08-15T03:13:29.657Z,2.20
2023-08-15T03:14:29.661Z,2.70
2023-08-15T03:15:29.631Z,2.30
2023-08-15T03:16:29.680Z,2.50
2023-08-15T03:17:29.641Z,2.40
2023-08-15T03:18:29.652Z,2.30
2023-08-15T03:19:29.586Z,2.30
2023-08-15T03:20:29.569Z,2.70
2023-08-15T03:21:29.577Z,2.50
2023-08-15T03:22:29.544Z,2.70
2023-08-15T03:23:29.601Z,2.70
2023-08-15T03:24:29.550Z,2.80
2023-08-15T03:25:29.524Z,2.60
2023-08-15T03:26:29.513Z,2.50
2023-08-15T03:27:29.505Z,2.60
2023-08-15T03:28:30.312Z,2.40
2023-08-15T03:29:29.528Z,2.40
2023-08-15T03:30:29.515Z,2.30
2023-08-15T03:31:29.965Z,2.80
2023-08-15T03:32:29.449Z,2.40
2023-08-15T03:33:29.501Z,2.30
2023-08-15T03:34:29.358Z,2.40
2023-08-15T03:35:29.490Z,2.30
2023-08-15T03:36:29.394Z,2.30
2023-08-15T03:37:29.395Z,2.60
2023-08-15T03:38:29.368Z,2.70
2023-08-15T03:39:29.378Z,2.50
2023-08-15T03:40:29.309Z,2.40
2023-08-15T03:41:29.632Z,2.40
2023-08-15T03:42:29.339Z,2.60
2023-08-15T03:43:29.312Z,2.40
2023-08-15T03:44:29.527Z,2.40
2023-08-15T03:45:29.328Z,2.60
2023-08-15T03:46:29.337Z,2.30
2023-08-15T03:47:29.246Z,2.30
2023-08-15T03:48:29.202Z,2.50
2023-08-15T03:49:29.204Z,2.40
2023-08-15T03:50:29.182Z,2.50
2023-08-15T03:51:45.751Z,2.40
2023-08-15T03:52:29.182Z,2.50
2023-08-15T03:53:29.172Z,2.30
2023-08-15T03:54:29.150Z,2.60
2023-08-15T03:55:30.324Z,2.40
2023-08-15T03:56:29.153Z,2.60
2023-08-15T03:57:29.126Z,2.80
2023-08-15T03:58:29.096Z,2.60
2023-08-15T03:59:29.118Z,2.40
2023-08-15T04:00:29.077Z,2.20
2023-08-15T04:01:29.089Z,2.70
2023-08-15T04:02:29.112Z,2.70
2023-08-15T04:03:29.117Z,2.40
2023-08-15T04:04:29.022Z,2.50
2023-08-15T04:05:29.035Z,2.70
2023-08-15T04:06:29.818Z,2.80
2023-08-15T04:07:29.002Z,2.70
2023-08-15T04:08:28.978Z,2.30
2023-08-15T04:09:28.998Z,2.30
2023-08-15T04:10:28.967Z,2.70
2023-08-15T04:11:28.978Z,2.60
2023-08-15T04:12:29.801Z,2.60
2023-08-15T04:13:28.936Z,2.40
2023-08-15T04:14:28.930Z,2.50
2023-08-15T04:15:28.926Z,2.50
2023-08-15T04:16:29.009Z,2.70
2023-08-15T04:17:28.914Z,2.50
2023-08-15T04:18:28.872Z,2.20
2023-08-15T04:19:28.889Z,2.30
2023-08-15T04:20:28.891Z,2.80
2023-08-15T04:21:28.870Z,2.30
2023-08-15T04:22:28.923Z,2.60
2023-08-15T04:23:28.834Z,2.30
2023-08-15T04:24:28.813Z,2.20
2023-08-15T04:25:31.486Z,2.50
2023-08-15T04:26:28.825Z,2.60
2023-08-15T04:27:28.814Z,2.40
2023-08-15T04:28:28.765Z,2.40
2023-08-15T04:29:28.775Z,2.40
2023-08-15T04:30:28.740Z,2.60
2023-08-15T04:31:28.802Z,2.20
2023-08-15T04:32:28.778Z,2.50
2023-08-15T04:33:28.759Z,2.40
2023-08-15T04:34:28.698Z,2.30
2023-08-15T04:35:28.702Z,2.40
2023-08-15T04:36:28.689Z,2.40
2023-08-15T04:37:28.714Z,2.30
2023-08-15T04:38:28.664Z,2.10
2023-08-15T04:39:28.660Z,2.60
2023-08-15T04:40:28.712Z,2.60
2023-08-15T04:41:28.636Z,2.40
2023-08-15T04:42:28.868Z,2.20
2023-08-15T04:43:28.615Z,2.40
2023-08-15T04:44:28.588Z,2.60
2023-08-15T04:45:29.084Z,2.60
2023-08-15T04:46:28.708Z,2.20
2023-08-15T04:47:28.629Z,2.40
2023-08-15T04:48:30.677Z,2.40
2023-08-15T04:49:28.561Z,2.70
2023-08-15T04:50:28.564Z,2.70
2023-08-15T04:51:28.550Z,3.10
2023-08-15T04:52:28.507Z,2.30
2023-08-15T04:53:28.536Z,2.50
2023-08-15T04:54:28.494Z,2.30
2023-08-15T04:55:28.492Z,2.40
2023-08-15T04:56:28.756Z,2.10
2023-08-15T04:57:28.470Z,2.50
2023-08-15T04:58:28.450Z,2.70
2023-08-15T04:59:28.497Z,2.50
2023-08-15T05:00:28.432Z,2.10
2023-08-15T05:01:28.473Z,2.60
2023-08-15T05:02:28.472Z,2.10
2023-08-15T05:03:28.409Z,2.80
2023-08-15T05:04:28.384Z,2.50
2023-08-15T05:05:28.456Z,2.50
2023-08-15T05:06:28.366Z,2.80
2023-08-15T05:07:28.383Z,2.90
2023-08-15T05:08:28.352Z,2.50
2023-08-15T05:09:28.381Z,2.60
2023-08-15T05:10:28.314Z,2.70
2023-08-15T05:11:28.333Z,2.60
2023-08-15T05:12:28.292Z,2.80
2023-08-15T05:13:28.295Z,2.50
2023-08-15T05:14:28.285Z,2.40
2023-08-15T05:15:28.306Z,2.90
2023-08-15T05:16:28.259Z,2.80
2023-08-15T05:17:31.518Z,2.70
2023-08-15T05:18:28.246Z,2.90
2023-08-15T05:19:28.236Z,2.50
2023-08-15T05:20:28.211Z,2.80
2023-08-15T05:21:28.219Z,2.20
2023-08-15T05:22:28.334Z,2.60
2023-08-15T05:23:28.667Z,2.50
2023-08-15T05:24:28.168Z,2.80
2023-08-15T05:25:28.197Z,2.70
2023-08-15T05:26:28.418Z,3.00
2023-08-15T05:27:28.159Z,2.50
2023-08-15T05:28:28.123Z,2.50
2023-08-15T05:29:28.149Z,2.40
2023-08-15T05:30:28.106Z,2.40
2023-08-15T05:31:28.870Z,3.00
2023-08-15T05:32:28.185Z,3.00
2023-08-15T05:33:28.093Z,2.40
2023-08-15T05:34:28.095Z,2.40
2023-08-15T05:35:28.114Z,2.80
2023-08-15T05:36:28.060Z,2.50
2023-08-15T05:37:28.049Z,3.00
2023-08-15T05:38:28.018Z,2.90
2023-08-15T05:39:28.039Z,2.80
2023-08-15T05:40:28.085Z,3.40
2023-08-15T05:41:28.026Z,2.90
2023-08-15T05:42:27.973Z,2.80
2023-08-15T05:43:27.994Z,2.90
2023-08-15T05:44:27.964Z,3.30
2023-08-15T05:45:27.957Z,4.10
2023-08-15T05:46:27.971Z,3.00
2023-08-15T05:47:28.292Z,2.90
2023-08-15T05:48:27.910Z,3.10
2023-08-15T05:49:28.408Z,3.10
2023-08-15T05:50:27.900Z,3.50
2023-08-15T05:51:27.894Z,3.10
2023-08-15T05:52:27.898Z,2.90
2023-08-15T05:53:27.875Z,2.90
2023-08-15T05:54:27.874Z,2.80
2023-08-15T05:55:27.891Z,2.80
2023-08-15T05:56:27.821Z,3.10
2023-08-15T05:57:27.824Z,2.80
2023-08-15T05:58:27.783Z,2.90
2023-08-15T05:59:27.836Z,2.90
2023-08-15T06:00:27.765Z,2.80
2023-08-15T06:01:27.801Z,2.60
2023-08-15T06:02:27.744Z,2.60
2023-08-15T06:03:45.006Z,2.70
2023-08-15T06:04:28.257Z,2.90
2023-08-15T06:05:27.741Z,3.30
2023-08-15T06:06:27.727Z,3.20
2023-08-15T06:07:28.376Z,2.80
2023-08-15T06:08:27.679Z,3.10
2023-08-15T06:09:27.689Z,3.20
2023-08-15T06:10:27.781Z,3.30
2023-08-15T06:11:27.736Z,2.80
2023-08-15T06:12:27.644Z,3.00
2023-08-15T06:13:27.647Z,3.00
2023-08-15T06:14:27.643Z,3.00
2023-08-15T06:15:27.611Z,2.80
2023-08-15T06:16:27.642Z,3.50
2023-08-15T06:17:27.677Z,3.10
2023-08-15T06:18:27.603Z,3.00
2023-08-15T06:19:27.615Z,2.80
2023-08-15T06:20:27.566Z,3.10
2023-08-15T06:21:27.538Z,3.10
2023-08-15T06:22:27.572Z,3.30
2023-08-15T06:23:27.586Z,3.00
2023-08-15T06:24:27.555Z,2.80
2023-08-15T06:25:27.573Z,3.20
2023-08-15T06:26:27.500Z,2.90
2023-08-15T06:27:27.470Z,3.30
2023-08-15T06:28:27.486Z,3.30
2023-08-15T06:29:27.454Z,3.20
2023-08-15T06:30:27.481Z,3.30
2023-08-15T06:31:27.639Z,3.80
2023-08-15T06:32:27.483Z,2.90
2023-08-15T06:33:27.404Z,3.10
2023-08-15T06:34:27.420Z,3.10
2023-08-15T06:35:27.610Z,3.10
2023-08-15T06:36:27.397Z,2.90
2023-08-15T06:37:27.386Z,3.20
2023-08-15T06:38:27.373Z,3.20
2023-08-15T06:39:27.336Z,3.10
2023-08-15T06:40:27.344Z,3.30
2023-08-15T06:41:27.358Z,3.10
2023-08-15T06:42:27.314Z,3.10
2023-08-15T06:43:27.361Z,3.60
2023-08-15T06:44:27.726Z,3.40
2023-08-15T06:45:27.276Z,3.30
2023-08-15T06:46:27.380Z,3.30
2023-08-15T06:47:27.262Z,3.40
2023-08-15T06:48:27.272Z,3.00
2023-08-15T06:49:27.339Z,2.80
2023-08-15T06:50:27.235Z,3.40
2023-08-15T06:51:27.209Z,3.10
2023-08-15T06:52:27.221Z,3.10
2023-08-15T06:53:27.197Z,3.40
2023-08-15T06:54:27.186Z,3.10
2023-08-15T06:55:27.202Z,2.40
2023-08-15T06:56:27.176Z,2.40
2023-08-15T06:57:27.161Z,2.50
2023-08-15T06:58:27.172Z,2.90
2023-08-15T06:59:27.200Z,2.60
2023-08-15T07:00:27.186Z,2.10
2023-08-15T07:01:27.108Z,2.20
2023-08-15T07:02:27.156Z,2.40
2023-08-15T07:03:27.182Z,2.20
2023-08-15T07:04:27.115Z,2.20
2023-08-15T07:05:27.747Z,2.00
2023-08-15T07:06:27.089Z,2.40
2023-08-15T07:07:27.091Z,2.10
2023-08-15T07:08:27.037Z,2.20
2023-08-15T07:09:27.020Z,2.20
2023-08-15T07:10:27.046Z,2.40
2023-08-15T07:11:26.989Z,2.30
2023-08-15T07:12:27.009Z,2.20
2023-08-15T07:13:26.993Z,2.20
2023-08-15T07:14:26.983Z,2.10
2023-08-15T07:15:26.967Z,2.40
2023-08-15T07:16:27.011Z,2.30
2023-08-15T07:17:26.957Z,1.90
2023-08-15T07:18:26.954Z,1.70
2023-08-15T07:19:26.912Z,1.60
2023-08-15T07:20:27.756Z,2.00
2023-08-15T07:21:29.223Z,1.90
2023-08-15T07:22:26.898Z,1.80
2023-08-15T07:23:26.864Z,2.20
2023-08-15T07:24:26.930Z,2.40
2023-08-15T07:25:26.869Z,2.60
2023-08-15T07:26:26.857Z,3.20
2023-08-15T07:27:26.875Z,3.30
2023-08-15T07:28:26.821Z,3.20
2023-08-15T07:29:26.886Z,3.50
2023-08-15T07:30:27.069Z,3.30
2023-08-15T07:31:26.813Z,4.00
2023-08-15T07:32:27.130Z,3.70
2023-08-15T07:33:26.757Z,3.60
2023-08-15T07:34:26.810Z,3.80
2023-08-15T07:35:26.733Z,3.80
2023-08-15T07:36:26.754Z,4.00
2023-08-15T07:37:28.052Z,3.50
2023-08-15T07:38:26.783Z,3.40
2023-08-15T07:39:26.690Z,3.50
2023-08-15T07:40:26.960Z,3.70
2023-08-15T07:41:26.675Z,3.00
2023-08-15T07:42:26.758Z,2.90
2023-08-15T07:43:26.645Z,2.80
2023-08-15T07:44:26.801Z,3.30
2023-08-15T07:45:26.650Z,3.60
2023-08-15T07:46:27.031Z,3.30
2023-08-15T07:47:26.652Z,3.30
2023-08-15T07:48:26.622Z,2.60
2023-08-15T07:49:26.621Z,2.90
2023-08-15T07:50:26.622Z,2.20
2023-08-15T07:51:26.565Z,2.10
2023-08-15T07:52:26.954Z,2.40
2023-08-15T07:53:26.570Z,2.40
2023-08-15T07:54:26.548Z,3.20
2023-08-15T07:55:28.015Z,2.80
2023-08-15T07:56:26.612Z,2.70
2023-08-15T07:57:26.532Z,2.30
2023-08-15T07:58:26.511Z,2.00
2023-08-15T07:59:26.500Z,1.80
2023-08-15T08:00:26.504Z,1.30
2023-08-15T08:01:26.520Z,1.40
2023-08-15T08:02:26.567Z,1.50
2023-08-15T08:03:26.486Z,1.80
2023-08-15T08:04:26.447Z,1.90
2023-08-15T08:05:26.477Z,1.50
2023-08-15T08:06:39.675Z,2.30
2023-08-15T08:07:26.412Z,2.30
2023-08-15T08:08:26.429Z,2.60
2023-08-15T08:09:26.371Z,2.70
2023-08-15T08:10:26.381Z,2.80
2023-08-15T08:11:26.361Z,2.20
2023-08-15T08:12:26.363Z,2.40
2023-08-15T08:13:27.887Z,2.40
2023-08-15T08:14:26.350Z,2.30
2023-08-15T08:15:26.310Z,2.30
2023-08-15T08:16:26.387Z,2.40
2023-08-15T08:17:26.394Z,2.40
2023-08-15T08:18:27.780Z,2.30
2023-08-15T08:19:26.296Z,2.50
2023-08-15T08:20:26.274Z,3.20
2023-08-15T08:21:26.257Z,1.30
2023-08-15T08:22:26.280Z,1.30
2023-08-15T08:23:26.236Z,1.20
2023-08-15T08:24:26.257Z,1.10
2023-08-15T08:25:26.204Z,1.10
2023-08-15T08:26:26.204Z,1.20
2023-08-15T08:27:26.188Z,1.20
2023-08-15T08:28:26.193Z,1.00
2023-08-15T08:29:26.218Z,0.80
2023-08-15T08:30:26.858Z,0.90
2023-08-15T08:31:26.144Z,0.90
2023-08-15T08:32:26.214Z,1.10
2023-08-15T08:33:26.120Z,1.00
2023-08-15T08:34:26.133Z,1.10
2023-08-15T08:35:26.101Z,1.00
2023-08-15T08:36:26.128Z,0.90
2023-08-15T08:37:26.091Z,0.90
2023-08-15T08:38:28.399Z,1.10
2023-08-15T08:39:31.667Z,1.00
2023-08-15T08:40:26.112Z,1.10
2023-08-15T08:41:26.034Z,1.10
2023-08-15T08:42:26.730Z,1.10
2023-08-15T08:43:26.064Z,1.20
2023-08-15T08:44:26.172Z,1.10
2023-08-15T08:45:26.102Z,1.20
2023-08-15T08:46:26.038Z,1.10
2023-08-15T08:47:26.148Z,1.10
2023-08-15T08:48:25.986Z,1.20
2023-08-15T08:49:25.962Z,1.10
2023-08-15T08:50:25.983Z,1.00
2023-08-15T08:51:25.971Z,1.10
2023-08-15T08:52:25.965Z,1.00
2023-08-15T08:53:25.956Z,1.30
2023-08-15T08:54:35.846Z,1.40
2023-08-15T08:55:25.903Z,1.10
2023-08-15T08:56:25.978Z,1.00
2023-08-15T08:57:25.898Z,1.20
2023-08-15T08:58:25.881Z,1.10
2023-08-15T08:59:25.855Z,1.10
2023-08-15T09:00:25.862Z,1.20
2023-08-15T09:01:25.926Z,1.10
2023-08-15T09:02:26.230Z,1.00
2023-08-15T09:03:25.905Z,1.10
2023-08-15T09:04:25.815Z,1.20
2023-08-15T09:05:26.059Z,1.20
2023-08-15T09:06:25.786Z,1.00
2023-08-15T09:07:25.793Z,1.20
2023-08-15T09:08:26.022Z,1.20
2023-08-15T09:09:25.754Z,1.10
2023-08-15T09:10:25.752Z,1.20
2023-08-15T09:11:25.852Z,1.30
2023-08-15T09:12:25.772Z,1.50
2023-08-15T09:13:25.713Z,1.30
2023-08-15T09:14:25.727Z,1.20
2023-08-15T09:15:25.718Z,1.10
2023-08-15T09:16:25.736Z,1.10
2023-08-15T09:17:25.676Z,1.20
2023-08-15T09:18:25.681Z,1.20
2023-08-15T09:19:25.634Z,1.20
2023-08-15T09:20:25.688Z,1.30
2023-08-15T09:21:25.822Z,1.10
2023-08-15T09:22:25.638Z,1.40
2023-08-15T09:23:25.599Z,1.30
2023-08-15T09:24:25.599Z,1.20
2023-08-15T09:25:25.650Z,1.20
2023-08-15T09:26:25.684Z,1.00
2023-08-15T09:27:25.552Z,1.00
2023-08-15T09:28:25.562Z,1.30
2023-08-15T09:29:25.604Z,1.40
2023-08-15T09:30:25.615Z,1.20
2023-08-15T09:31:25.602Z,1.30
2023-08-15T09:32:25.663Z,1.10
2023-08-15T09:33:25.520Z,1.30
2023-08-15T09:34:25.501Z,1.10
2023-08-15T09:35:25.470Z,1.20
2023-08-15T09:36:25.479Z,1.10
2023-08-15T09:37:25.449Z,1.20
2023-08-15T09:38:25.480Z,1.30
2023-08-15T09:39:25.468Z,1.20
2023-08-15T09:40:25.542Z,1.20
2023-08-15T09:41:27.787Z,1.20
2023-08-15T09:42:25.420Z,1.20
2023-08-15T09:43:25.412Z,1.20
2023-08-15T09:44:25.461Z,1.50
2023-08-15T09:45:25.458Z,1.30
2023-08-15T09:46:25.439Z,1.40
2023-08-15T09:47:25.410Z,1.40
2023-08-15T09:48:25.349Z,1.10
2023-08-15T09:49:25.320Z,1.10
2023-08-15T09:50:25.451Z,1.10
2023-08-15T09:51:25.322Z,1.30
2023-08-15T09:52:25.342Z,1.40
2023-08-15T09:53:25.278Z,1.60
2023-08-15T09:54:25.299Z,1.20
2023-08-15T09:55:25.268Z,1.00
2023-08-15T09:56:25.281Z,1.10
2023-08-15T09:57:25.232Z,1.30
2023-08-15T09:58:25.241Z,1.30
2023-08-15T09:59:25.223Z,1.10
2023-08-15T10:00:25.219Z,1.20
2023-08-15T10:01:25.232Z,1.00
2023-08-15T10:02:25.209Z,1.10
2023-08-15T10:03:25.258Z,1.30
2023-08-15T10:04:25.181Z,1.10
2023-08-15T10:05:25.159Z,1.40
2023-08-15T10:06:25.160Z,1.00
2023-08-15T10:07:25.133Z,1.30
2023-08-15T10:08:25.173Z,1.20
2023-08-15T10:09:25.115Z,1.10
2023-08-15T10:10:25.121Z,1.10
2023-08-15T10:11:25.094Z,1.10
2023-08-15T10:12:25.098Z,1.10
2023-08-15T10:13:25.116Z,1.30
2023-08-15T10:14:25.081Z,0.90
2023-08-15T10:15:25.062Z,1.10
2023-08-15T10:16:25.123Z,1.20
2023-08-15T10:17:25.413Z,1.30
2023-08-15T10:18:25.060Z,1.00
2023-08-15T10:19:25.038Z,1.00
2023-08-15T10:20:25.020Z,1.20
2023-08-15T10:21:24.993Z,1.00
2023-08-15T10:22:25.293Z,0.90
2023-08-15T10:23:24.971Z,1.10
2023-08-15T10:24:24.996Z,1.30
2023-08-15T10:25:24.976Z,1.20
2023-08-15T10:26:25.032Z,1.00
2023-08-15T10:27:24.921Z,1.00
2023-08-15T10:28:24.928Z,1.00
2023-08-15T10:29:25.041Z,1.40
2023-08-15T10:30:24.913Z,1.00
2023-08-15T10:31:24.942Z,1.10
2023-08-15T10:32:24.867Z,1.30
2023-08-15T10:33:24.896Z,1.40
2023-08-15T10:34:24.849Z,1.20
2023-08-15T10:35:32.014Z,0.90
2023-08-15T10:36:27.067Z,1.40
2023-08-15T10:37:24.834Z,1.30
2023-08-15T10:38:24.829Z,1.20
2023-08-15T10:39:24.809Z,1.20
2023-08-15T10:40:24.782Z,1.00
2023-08-15T10:41:24.790Z,1.10
2023-08-15T10:42:24.790Z,1.10
2023-08-15T10:43:24.767Z,1.30
2023-08-15T10:44:24.742Z,1.10
2023-08-15T10:45:24.740Z,1.20
2023-08-15T10:46:24.755Z,1.10
2023-08-15T10:47:24.743Z,0.90
2023-08-15T10:48:24.725Z,0.90
2023-08-15T10:49:24.709Z,1.00
2023-08-15T10:50:24.680Z,1.10
2023-08-15T10:51:24.705Z,1.10
2023-08-15T10:52:24.665Z,1.10
2023-08-15T10:53:24.676Z,1.00
2023-08-15T10:54:24.664Z,1.20
2023-08-15T10:55:24.658Z,0.90
2023-08-15T10:56:24.619Z,1.00
2023-08-15T10:57:24.620Z,1.00
2023-08-15T10:58:24.598Z,1.20
2023-08-15T10:59:24.600Z,1.10
2023-08-15T11:00:24.607Z,1.50
2023-08-15T11:01:24.644Z,1.20
2023-08-15T11:02:24.594Z,1.30
2023-08-15T11:03:24.589Z,1.50
2023-08-15T11:04:24.530Z,1.60
2023-08-15T11:05:24.602Z,1.40
2023-08-15T11:06:24.567Z,1.20
2023-08-15T11:07:24.526Z,1.20
2023-08-15T11:08:24.517Z,1.10
2023-08-15T11:09:24.529Z,1.10
2023-08-15T11:10:24.483Z,1.20
2023-08-15T11:11:24.510Z,1.10
2023-08-15T11:12:24.513Z,1.30
2023-08-15T11:13:24.495Z,1.10
2023-08-15T11:14:24.439Z,1.10
2023-08-15T11:15:24.496Z,1.10
2023-08-15T11:16:24.509Z,1.20
2023-08-15T11:17:24.402Z,0.90
2023-08-15T11:18:24.433Z,1.10
2023-08-15T11:19:24.393Z,1.20
2023-08-15T11:20:24.401Z,1.30
2023-08-15T11:21:24.384Z,1.30
2023-08-15T11:22:24.376Z,1.30
2023-08-15T11:23:24.378Z,1.30
2023-08-15T11:24:24.358Z,1.20
2023-08-15T11:25:24.335Z,1.00
2023-08-15T11:26:24.310Z,1.20
2023-08-15T11:27:24.558Z,0.80
2023-08-15T11:28:24.320Z,1.20
2023-08-15T11:29:24.300Z,1.20
2023-08-15T11:30:24.314Z,1.30
2023-08-15T11:31:24.321Z,1.30
2023-08-15T11:32:24.403Z,1.20
2023-08-15T11:33:24.274Z,1.20
2023-08-15T11:34:24.267Z,1.10
2023-08-15T11:35:24.249Z,1.50
2023-08-15T11:36:24.214Z,1.10
2023-08-15T11:37:24.435Z,1.00
2023-08-15T11:38:24.219Z,1.00
2023-08-15T11:39:24.208Z,1.10
2023-08-15T11:40:24.179Z,1.10
2023-08-15T11:41:24.181Z,1.20
2023-08-15T11:42:24.168Z,1.00
2023-08-15T11:43:24.181Z,1.10
2023-08-15T11:44:24.139Z,1.10
2023-08-15T11:45:24.313Z,1.10
2023-08-15T11:46:24.619Z,1.00
2023-08-15T11:47:24.422Z,1.10
2023-08-15T11:48:24.112Z,1.00
2023-08-15T11:49:24.345Z,1.00
2023-08-15T11:50:37.920Z,0.90
2023-08-15T11:51:24.101Z,1.00
2023-08-15T11:52:24.357Z,1.00
2023-08-15T11:53:25.418Z,1.10
2023-08-15T11:54:24.048Z,1.10
2023-08-15T11:55:24.056Z,1.10
2023-08-15T11:56:24.016Z,0.90
2023-08-15T11:57:24.294Z,1.40
2023-08-15T11:58:24.029Z,1.00
2023-08-15T11:59:24.029Z,1.20
2023-08-15T12:00:23.966Z,1.10
2023-08-15T12:01:24.062Z,1.30
2023-08-15T12:02:23.965Z,1.10
2023-08-15T12:03:23.966Z,1.20
2023-08-15T12:04:25.119Z,0.90
2023-08-15T12:05:23.974Z,1.10
2023-08-15T12:06:23.927Z,1.00
2023-08-15T12:07:24.162Z,1.10
2023-08-15T12:08:23.881Z,1.10
2023-08-15T12:09:23.917Z,1.30
2023-08-15T12:10:23.863Z,1.20
2023-08-15T12:11:23.864Z,1.10
2023-08-15T12:12:24.096Z,1.30
2023-08-15T12:13:23.850Z,0.90
2023-08-15T12:14:23.859Z,1.20
2023-08-15T12:15:23.865Z,1.10
2023-08-15T12:16:23.906Z,1.20
2023-08-15T12:17:24.193Z,1.10
2023-08-15T12:18:23.782Z,1.10
2023-08-15T12:19:25.941Z,1.10
2023-08-15T12:20:23.770Z,1.30
2023-08-15T12:21:23.795Z,1.10
2023-08-15T12:22:25.559Z,1.10
2023-08-15T12:23:28.596Z,1.60
2023-08-15T12:24:23.733Z,1.60
2023-08-15T12:25:23.773Z,1.00
2023-08-15T12:26:23.721Z,1.00
2023-08-15T12:27:23.707Z,1.10
2023-08-15T12:28:23.925Z,1.20
2023-08-15T12:30:12.054Z,1.20
2023-08-15T12:30:23.677Z,1.10
2023-08-15T12:31:23.733Z,1.00
2023-08-15T12:32:23.864Z,1.20
2023-08-15T12:33:39.175Z,1.20
2023-08-15T12:34:23.631Z,1.20
2023-08-15T12:35:23.652Z,1.20
2023-08-15T12:36:23.601Z,1.20
2023-08-15T12:37:23.629Z,1.10
2023-08-15T12:38:23.574Z,1.20
2023-08-15T12:39:23.605Z,1.10
2023-08-15T12:41:23.591Z,1.20
2023-08-15T12:42:23.822Z,1.10
2023-08-15T12:43:23.593Z,1.20
2023-08-15T12:44:23.533Z,1.10
2023-08-15T12:45:23.556Z,1.20
2023-08-15T12:46:24.383Z,1.70
2023-08-15T12:47:23.518Z,1.40
2023-08-15T12:48:23.487Z,1.30
2023-08-15T12:49:23.487Z,1.00
2023-08-15T12:50:23.449Z,1.20
2023-08-15T12:51:23.461Z,1.40
2023-08-15T12:52:23.719Z,1.00
2023-08-15T12:53:23.450Z,0.90
2023-08-15T12:54:23.406Z,1.30
2023-08-15T12:55:23.450Z,1.20
2023-08-15T12:56:23.381Z,1.20
2023-08-15T12:57:23.391Z,1.00
2023-08-15T12:58:23.356Z,1.20
2023-08-15T12:59:23.363Z,1.20
2023-08-15T13:00:23.341Z,1.30
2023-08-15T13:01:23.434Z,1.20
2023-08-15T13:02:23.657Z,1.60
2023-08-15T13:03:23.395Z,1.00
2023-08-15T13:04:23.318Z,1.00
2023-08-15T13:05:23.332Z,1.20
2023-08-15T13:06:23.274Z,1.30
2023-08-15T13:07:23.324Z,1.50
2023-08-15T13:08:23.256Z,1.10
2023-08-15T13:09:23.275Z,1.00
2023-08-15T13:10:23.336Z,1.30
2023-08-15T13:11:23.232Z,1.50
2023-08-15T13:12:23.486Z,1.20
2023-08-15T13:13:23.242Z,1.40
2023-08-15T13:14:32.845Z,1.20
2023-08-15T13:15:23.239Z,1.20
2023-08-15T13:16:23.218Z,1.50
2023-08-15T13:17:23.479Z,1.50
2023-08-15T13:18:23.256Z,1.60
2023-08-15T13:19:23.920Z,1.50